Pagina principale
METAR-TAF:

METAR-TAF

Aeroporti :

Aeroporto di Ponta Delgada

Ponta Delgada, Azzorre, Portogallo

latitudine: 37-44N, longitudine: 025-42W, altezza: 71 m

Osservazione

Il bollettino è stato emesso 11 minuti fa, alle 17:30 UTC
Vento 5 kt da sud-ovest, variando fra sud e ovest
Temperature 24°C
Umidità 74%
Pressione 1024 hPa
Visibilità 10 km o più
Poco nuvoloso ad un'altezza di 1800 ft
Nubi sparse ad un'altezza di 4000 ft

METAR: LPPD 141730Z 22005KT 190V260 9999 FEW018 SCT040 24/19 Q1024

Ora: 17:41 (17:41 UTC)

Previsione

Il bollettino è stato emesso 41 minuti fa, alle 17:00 UTC
Previsione valida dal 14 alle 18 UTC al 15 alle 18 UTC
Vento 5 kt da direzioni variabili
Visibilità 10 km o più
Nubi sparse ad un'altezza di 2000 ft

TAF: LPPD 141700Z 1418/1518 VRB05KT 9999 SCT020

Osservazioni e previsioni meteorologiche di più di 4000 aeroporti (messaggi METAR e TAF).

Le stazioni disponibili sono rappresentate dai dischi gialli e rossi sulla carta.

Puntare il mouse per vedere il nome della stazione.

Clicca sopra per visualizzare le osservazioni e previsioni meteorologiche.

Per cambiare la mappa : fare clic sui pulsanti verdi con una croce nera per ingrandire, il pulsante verde con un trattino per diminuire, o sulla freccia verde per le mappe adiacenti.


METAR-TAF: